sensor_id;sensor_type;location;lat;lon;timestamp;pressure;altitude;pressure_sealevel;temperature;humidity
21449;BME280;10885;52.830;13.788;2023-04-30T00:03:39;101550.72;;;7.19;63.28
21449;BME280;10885;52.830;13.788;2023-04-30T00:09:00;101552.06;;;7.05;63.55
21449;BME280;10885;52.830;13.788;2023-04-30T00:14:21;101544.63;;;6.98;63.97
21449;BME280;10885;52.830;13.788;2023-04-30T00:19:42;101554.19;;;6.90;64.33
21449;BME280;10885;52.830;13.788;2023-04-30T00:25:03;101551.44;;;6.79;64.47
21449;BME280;10885;52.830;13.788;2023-04-30T00:30:24;101559.00;;;6.68;65.13
21449;BME280;10885;52.830;13.788;2023-04-30T00:35:46;101562.28;;;6.57;65.06
21449;BME280;10885;52.830;13.788;2023-04-30T00:41:07;101568.34;;;6.49;64.88
21449;BME280;10885;52.830;13.788;2023-04-30T00:46:28;101573.34;;;6.38;65.21
21449;BME280;10885;52.830;13.788;2023-04-30T00:51:49;101579.16;;;6.27;65.43
21449;BME280;10885;52.830;13.788;2023-04-30T00:57:11;101582.38;;;6.16;66.21
21449;BME280;10885;52.830;13.788;2023-04-30T01:02:36;101586.63;;;6.07;66.20
21449;BME280;10885;52.830;13.788;2023-04-30T01:07:58;101588.00;;;5.94;66.87
21449;BME280;10885;52.830;13.788;2023-04-30T01:13:30;101596.19;;;5.82;67.79
21449;BME280;10885;52.830;13.788;2023-04-30T01:30:42;101605.44;;;5.45;69.02
21449;BME280;10885;52.830;13.788;2023-04-30T01:36:25;101615.81;;;5.37;68.34
21449;BME280;10885;52.830;13.788;2023-04-30T01:42:10;101611.03;;;5.32;68.96
21449;BME280;10885;52.830;13.788;2023-04-30T01:47:39;101613.00;;;5.26;69.27
21449;BME280;10885;52.830;13.788;2023-04-30T01:53:05;101619.00;;;5.17;69.26
21449;BME280;10885;52.830;13.788;2023-04-30T01:58:26;101633.69;;;5.11;68.99
21449;BME280;10885;52.830;13.788;2023-04-30T02:03:48;101619.19;;;5.02;69.91
21449;BME280;10885;52.830;13.788;2023-04-30T02:09:09;101636.50;;;4.97;69.84
21449;BME280;10885;52.830;13.788;2023-04-30T02:14:30;101647.44;;;4.87;69.85
21449;BME280;10885;52.830;13.788;2023-04-30T02:19:52;101644.28;;;4.81;70.71
21449;BME280;10885;52.830;13.788;2023-04-30T02:25:13;101655.53;;;4.74;71.13
21449;BME280;10885;52.830;13.788;2023-04-30T02:30:34;101661.94;;;4.62;69.91
21449;BME280;10885;52.830;13.788;2023-04-30T02:35:54;101668.19;;;4.48;69.85
21449;BME280;10885;52.830;13.788;2023-04-30T02:41:18;101673.84;;;4.37;71.58
21449;BME280;10885;52.830;13.788;2023-04-30T02:46:39;101681.88;;;4.24;71.36
21449;BME280;10885;52.830;13.788;2023-04-30T02:52:00;101686.03;;;4.15;72.51
21449;BME280;10885;52.830;13.788;2023-04-30T02:57:22;101685.34;;;3.91;72.14
21449;BME280;10885;52.830;13.788;2023-04-30T03:02:43;101685.44;;;3.75;73.17
21449;BME280;10885;52.830;13.788;2023-04-30T03:08:04;101695.72;;;3.68;73.33
21449;BME280;10885;52.830;13.788;2023-04-30T03:13:25;101690.09;;;3.55;74.12
21449;BME280;10885;52.830;13.788;2023-04-30T03:18:47;101693.41;;;3.38;74.41
21449;BME280;10885;52.830;13.788;2023-04-30T03:24:08;101701.88;;;3.30;74.40
21449;BME280;10885;52.830;13.788;2023-04-30T03:29:29;101721.19;;;3.21;74.88
21449;BME280;10885;52.830;13.788;2023-04-30T03:34:50;101707.38;;;3.10;75.15
21449;BME280;10885;52.830;13.788;2023-04-30T03:40:11;101720.06;;;3.10;75.67
21449;BME280;10885;52.830;13.788;2023-04-30T03:45:32;101722.59;;;3.10;75.97
21449;BME280;10885;52.830;13.788;2023-04-30T03:50:54;101732.91;;;3.11;76.37
21449;BME280;10885;52.830;13.788;2023-04-30T03:56:15;101742.13;;;3.11;76.60
21449;BME280;10885;52.830;13.788;2023-04-30T04:01:36;101731.88;;;3.18;77.05
21449;BME280;10885;52.830;13.788;2023-04-30T04:06:57;101738.34;;;3.23;77.09
21449;BME280;10885;52.830;13.788;2023-04-30T04:12:18;101744.56;;;3.18;76.86
21449;BME280;10885;52.830;13.788;2023-04-30T04:17:39;101745.97;;;3.23;76.72
21449;BME280;10885;52.830;13.788;2023-04-30T04:23:01;101751.06;;;3.32;76.85
21449;BME280;10885;52.830;13.788;2023-04-30T04:28:22;101766.38;;;3.41;77.11
21449;BME280;10885;52.830;13.788;2023-04-30T04:33:43;101768.06;;;3.49;76.77
21449;BME280;10885;52.830;13.788;2023-04-30T04:39:05;101778.75;;;3.62;76.59
21449;BME280;10885;52.830;13.788;2023-04-30T04:44:26;101783.88;;;3.71;77.25
21449;BME280;10885;52.830;13.788;2023-04-30T04:49:47;101800.19;;;3.82;76.39
21449;BME280;10885;52.830;13.788;2023-04-30T04:55:09;101805.19;;;3.97;76.52
21449;BME280;10885;52.830;13.788;2023-04-30T05:00:31;101809.72;;;4.00;76.82
21449;BME280;10885;52.830;13.788;2023-04-30T05:05:53;101809.22;;;4.20;77.35
21449;BME280;10885;52.830;13.788;2023-04-30T05:11:15;101820.63;;;4.32;77.02
21449;BME280;10885;52.830;13.788;2023-04-30T05:16:37;101819.78;;;4.49;76.56
21449;BME280;10885;52.830;13.788;2023-04-30T05:21:58;101822.66;;;4.61;76.47
21449;BME280;10885;52.830;13.788;2023-04-30T05:27:21;101826.31;;;4.89;75.91
21449;BME280;10885;52.830;13.788;2023-04-30T05:32:42;101838.91;;;5.05;74.89
21449;BME280;10885;52.830;13.788;2023-04-30T05:38:03;101843.91;;;5.30;74.89
21449;BME280;10885;52.830;13.788;2023-04-30T05:43:23;101849.88;;;5.65;73.11
21449;BME280;10885;52.830;13.788;2023-04-30T05:48:44;101852.56;;;5.84;72.47
21449;BME280;10885;52.830;13.788;2023-04-30T05:54:06;101846.84;;;6.04;70.93
21449;BME280;10885;52.830;13.788;2023-04-30T05:59:26;101857.91;;;6.22;70.07
21449;BME280;10885;52.830;13.788;2023-04-30T06:04:47;101857.78;;;6.57;68.66
21449;BME280;10885;52.830;13.788;2023-04-30T06:10:08;101866.78;;;6.90;67.66
21449;BME280;10885;52.830;13.788;2023-04-30T06:15:30;101863.41;;;7.27;66.25
21449;BME280;10885;52.830;13.788;2023-04-30T06:20:50;101868.84;;;7.60;64.96
21449;BME280;10885;52.830;13.788;2023-04-30T06:26:11;101872.28;;;7.79;63.42
21449;BME280;10885;52.830;13.788;2023-04-30T06:31:34;101890.88;;;7.97;62.17
21449;BME280;10885;52.830;13.788;2023-04-30T06:36:56;101883.38;;;8.28;61.03
21449;BME280;10885;52.830;13.788;2023-04-30T06:42:17;101883.94;;;8.73;59.84
21449;BME280;10885;52.830;13.788;2023-04-30T06:47:37;101884.38;;;9.29;58.52
21449;BME280;10885;52.830;13.788;2023-04-30T06:52:58;101885.28;;;9.83;56.27
21449;BME280;10885;52.830;13.788;2023-04-30T06:58:20;101888.84;;;10.38;53.14
21449;BME280;10885;52.830;13.788;2023-04-30T07:03:41;101882.81;;;11.03;51.90
21449;BME280;10885;52.830;13.788;2023-04-30T07:09:02;101883.53;;;11.82;48.60
21449;BME280;10885;52.830;13.788;2023-04-30T07:14:23;101890.31;;;13.79;45.49
21449;BME280;10885;52.830;13.788;2023-04-30T07:19:44;101891.16;;;17.37;37.22
21449;BME280;10885;52.830;13.788;2023-04-30T07:25:05;101893.84;;;22.31;28.53
21449;BME280;10885;52.830;13.788;2023-04-30T07:30:26;101899.63;;;26.69;21.88
21449;BME280;10885;52.830;13.788;2023-04-30T07:35:47;101912.34;;;28.19;18.97
21449;BME280;10885;52.830;13.788;2023-04-30T07:41:09;101911.88;;;29.60;17.04
21449;BME280;10885;52.830;13.788;2023-04-30T07:46:31;101915.28;;;28.74;18.10
21449;BME280;10885;52.830;13.788;2023-04-30T07:51:52;101910.38;;;25.66;20.04
21449;BME280;10885;52.830;13.788;2023-04-30T07:57:13;101918.31;;;22.95;23.47
21449;BME280;10885;52.830;13.788;2023-04-30T08:02:34;101914.03;;;21.05;25.94
21449;BME280;10885;52.830;13.788;2023-04-30T08:07:57;101921.91;;;19.31;26.42
21449;BME280;10885;52.830;13.788;2023-04-30T08:13:18;101920.91;;;19.08;27.82
21449;BME280;10885;52.830;13.788;2023-04-30T08:18:40;101914.97;;;18.54;27.30
21449;BME280;10885;52.830;13.788;2023-04-30T08:24:04;101922.31;;;18.62;28.17
21449;BME280;10885;52.830;13.788;2023-04-30T08:29:25;101924.16;;;19.64;27.69
21449;BME280;10885;52.830;13.788;2023-04-30T08:34:47;101917.00;;;19.79;26.08
21449;BME280;10885;52.830;13.788;2023-04-30T08:40:08;101914.00;;;20.12;24.40
21449;BME280;10885;52.830;13.788;2023-04-30T08:45:35;101921.28;;;20.43;25.26
21449;BME280;10885;52.830;13.788;2023-04-30T08:51:02;101910.16;;;20.70;23.47
21449;BME280;10885;52.830;13.788;2023-04-30T08:56:24;101912.22;;;21.29;25.31
21449;BME280;10885;52.830;13.788;2023-04-30T09:01:45;101924.63;;;21.60;23.75
21449;BME280;10885;52.830;13.788;2023-04-30T09:07:08;101921.13;;;21.59;24.25
21449;BME280;10885;52.830;13.788;2023-04-30T09:12:29;101916.66;;;22.67;23.89
21449;BME280;10885;52.830;13.788;2023-04-30T09:17:50;101939.50;;;23.03;22.59
21449;BME280;10885;52.830;13.788;2023-04-30T09:23:24;101938.75;;;23.40;20.67
21449;BME280;10885;52.830;13.788;2023-04-30T09:28:56;101936.28;;;24.16;19.20
21449;BME280;10885;52.830;13.788;2023-04-30T09:34:17;101926.78;;;24.59;19.26
21449;BME280;10885;52.830;13.788;2023-04-30T09:39:54;101931.41;;;25.18;18.65
21449;BME280;10885;52.830;13.788;2023-04-30T09:45:16;101931.59;;;24.82;18.96
21449;BME280;10885;52.830;13.788;2023-04-30T09:50:38;101923.38;;;25.11;18.39
21449;BME280;10885;52.830;13.788;2023-04-30T09:56:02;101920.50;;;25.41;17.24
21449;BME280;10885;52.830;13.788;2023-04-30T10:01:26;101915.44;;;25.06;19.75
21449;BME280;10885;52.830;13.788;2023-04-30T10:06:51;101914.13;;;24.43;18.59
21449;BME280;10885;52.830;13.788;2023-04-30T10:12:16;101920.66;;;24.21;17.93
21449;BME280;10885;52.830;13.788;2023-04-30T10:17:40;101894.56;;;24.67;17.71
21449;BME280;10885;52.830;13.788;2023-04-30T10:23:06;101896.19;;;24.20;18.26
21449;BME280;10885;52.830;13.788;2023-04-30T10:28:28;101906.97;;;23.95;18.51
21449;BME280;10885;52.830;13.788;2023-04-30T10:39:49;101883.63;;;23.69;21.55
21449;BME280;10885;52.830;13.788;2023-04-30T10:45:11;101876.75;;;23.73;18.26
21449;BME280;10885;52.830;13.788;2023-04-30T10:50:39;101876.91;;;23.79;19.47
21449;BME280;10885;52.830;13.788;2023-04-30T10:56:03;101882.50;;;23.94;20.06
21449;BME280;10885;52.830;13.788;2023-04-30T11:01:29;101877.06;;;23.15;22.40
21449;BME280;10885;52.830;13.788;2023-04-30T11:12:19;101877.50;;;22.69;21.24
21449;BME280;10885;52.830;13.788;2023-04-30T11:17:42;101875.81;;;22.71;22.81
21449;BME280;10885;52.830;13.788;2023-04-30T11:23:11;101871.78;;;22.50;22.47
21449;BME280;10885;52.830;13.788;2023-04-30T11:28:37;101869.81;;;23.05;22.30
21449;BME280;10885;52.830;13.788;2023-04-30T11:33:58;101867.28;;;23.08;21.12
21449;BME280;10885;52.830;13.788;2023-04-30T11:39:20;101864.81;;;22.82;21.05
21449;BME280;10885;52.830;13.788;2023-04-30T11:44:42;101863.22;;;22.88;20.34
21449;BME280;10885;52.830;13.788;2023-04-30T11:50:03;101869.88;;;22.76;19.97
21449;BME280;10885;52.830;13.788;2023-04-30T11:55:25;101858.78;;;22.85;20.32
21449;BME280;10885;52.830;13.788;2023-04-30T12:00:46;101864.88;;;22.52;22.29
21449;BME280;10885;52.830;13.788;2023-04-30T12:06:09;101863.44;;;22.33;21.45
21449;BME280;10885;52.830;13.788;2023-04-30T12:11:32;101861.09;;;22.42;21.59
21449;BME280;10885;52.830;13.788;2023-04-30T12:16:54;101860.75;;;22.62;20.91
21449;BME280;10885;52.830;13.788;2023-04-30T12:22:16;101862.22;;;22.82;20.16
21449;BME280;10885;52.830;13.788;2023-04-30T12:27:37;101846.84;;;22.95;19.07
21449;BME280;10885;52.830;13.788;2023-04-30T12:32:58;101851.88;;;22.87;18.03
21449;BME280;10885;52.830;13.788;2023-04-30T12:38:20;101847.69;;;22.94;18.25
21449;BME280;10885;52.830;13.788;2023-04-30T12:43:43;101841.78;;;23.01;18.07
21449;BME280;10885;52.830;13.788;2023-04-30T12:49:04;101832.09;;;22.97;17.83
21449;BME280;10885;52.830;13.788;2023-04-30T12:54:29;101837.22;;;22.94;17.57
21449;BME280;10885;52.830;13.788;2023-04-30T13:05:11;101825.31;;;23.03;18.70
21449;BME280;10885;52.830;13.788;2023-04-30T13:10:33;101823.38;;;22.96;17.43
21449;BME280;10885;52.830;13.788;2023-04-30T13:15:54;101823.78;;;23.12;17.90
21449;BME280;10885;52.830;13.788;2023-04-30T13:21:15;101823.16;;;23.20;17.70
21449;BME280;10885;52.830;13.788;2023-04-30T13:26:36;101814.09;;;23.42;17.94
21449;BME280;10885;52.830;13.788;2023-04-30T13:31:58;101804.63;;;23.13;18.82
21449;BME280;10885;52.830;13.788;2023-04-30T13:37:20;101798.00;;;22.94;17.26
21449;BME280;10885;52.830;13.788;2023-04-30T13:42:41;101805.47;;;23.10;17.73
21449;BME280;10885;52.830;13.788;2023-04-30T13:48:02;101796.06;;;23.18;18.28
21449;BME280;10885;52.830;13.788;2023-04-30T13:53:23;101794.22;;;22.81;18.23
21449;BME280;10885;52.830;13.788;2023-04-30T13:58:44;101796.72;;;22.78;18.74
21449;BME280;10885;52.830;13.788;2023-04-30T14:04:06;101792.41;;;22.78;18.21
21449;BME280;10885;52.830;13.788;2023-04-30T14:09:28;101787.03;;;22.74;19.33
21449;BME280;10885;52.830;13.788;2023-04-30T14:14:49;101780.47;;;22.90;19.83
21449;BME280;10885;52.830;13.788;2023-04-30T14:20:12;101776.84;;;22.51;19.18
21449;BME280;10885;52.830;13.788;2023-04-30T14:25:34;101773.81;;;22.68;19.94
21449;BME280;10885;52.830;13.788;2023-04-30T14:30:55;101770.16;;;22.61;20.56
21449;BME280;10885;52.830;13.788;2023-04-30T14:36:16;101767.22;;;22.18;20.38
21449;BME280;10885;52.830;13.788;2023-04-30T14:41:37;101757.50;;;22.14;21.00
21449;BME280;10885;52.830;13.788;2023-04-30T14:46:58;101756.44;;;22.36;20.49
21449;BME280;10885;52.830;13.788;2023-04-30T14:52:19;101758.94;;;22.33;20.71
21449;BME280;10885;52.830;13.788;2023-04-30T14:57:40;101752.31;;;22.16;20.71
21449;BME280;10885;52.830;13.788;2023-04-30T15:03:01;101754.47;;;21.99;21.35
21449;BME280;10885;52.830;13.788;2023-04-30T15:08:23;101749.81;;;21.89;21.30
21449;BME280;10885;52.830;13.788;2023-04-30T15:13:45;101747.75;;;21.77;22.46
21449;BME280;10885;52.830;13.788;2023-04-30T15:19:06;101746.81;;;21.75;21.63
21449;BME280;10885;52.830;13.788;2023-04-30T15:24:27;101746.84;;;21.48;22.71
21449;BME280;10885;52.830;13.788;2023-04-30T15:29:48;101748.66;;;21.24;22.65
21449;BME280;10885;52.830;13.788;2023-04-30T15:35:09;101751.16;;;20.94;23.15
21449;BME280;10885;52.830;13.788;2023-04-30T15:40:30;101755.03;;;21.05;23.64
21449;BME280;10885;52.830;13.788;2023-04-30T15:45:51;101747.75;;;20.95;23.95
21449;BME280;10885;52.830;13.788;2023-04-30T15:51:12;101746.38;;;20.81;24.39
21449;BME280;10885;52.830;13.788;2023-04-30T15:56:33;101746.59;;;20.61;24.39
21449;BME280;10885;52.830;13.788;2023-04-30T16:01:55;101744.66;;;20.32;24.71
21449;BME280;10885;52.830;13.788;2023-04-30T16:07:16;101747.84;;;20.24;24.42
21449;BME280;10885;52.830;13.788;2023-04-30T16:12:38;101740.97;;;20.26;24.68
21449;BME280;10885;52.830;13.788;2023-04-30T16:17:58;101732.66;;;19.89;24.99
21449;BME280;10885;52.830;13.788;2023-04-30T16:23:19;101727.78;;;19.53;25.62
21449;BME280;10885;52.830;13.788;2023-04-30T16:28:40;101732.03;;;19.28;26.08
21449;BME280;10885;52.830;13.788;2023-04-30T16:34:01;101728.63;;;19.08;26.02
21449;BME280;10885;52.830;13.788;2023-04-30T16:39:22;101727.47;;;18.61;26.57
21449;BME280;10885;52.830;13.788;2023-04-30T16:44:43;101726.09;;;18.09;27.19
21449;BME280;10885;52.830;13.788;2023-04-30T16:50:05;101731.81;;;18.02;27.65
21449;BME280;10885;52.830;13.788;2023-04-30T16:55:27;101724.72;;;17.80;27.94
21449;BME280;10885;52.830;13.788;2023-04-30T17:00:47;101715.41;;;17.65;28.24
21449;BME280;10885;52.830;13.788;2023-04-30T17:06:16;101708.34;;;17.43;28.96
21449;BME280;10885;52.830;13.788;2023-04-30T17:11:37;101718.34;;;17.36;28.68
21449;BME280;10885;52.830;13.788;2023-04-30T17:16:58;101725.88;;;16.79;29.29
21449;BME280;10885;52.830;13.788;2023-04-30T17:22:18;101719.13;;;16.64;29.62
21449;BME280;10885;52.830;13.788;2023-04-30T17:27:39;101730.50;;;16.34;30.06
21449;BME280;10885;52.830;13.788;2023-04-30T17:33:00;101727.25;;;16.05;31.12
21449;BME280;10885;52.830;13.788;2023-04-30T17:38:22;101739.59;;;15.78;31.48
21449;BME280;10885;52.830;13.788;2023-04-30T17:43:43;101736.00;;;15.44;32.44
21449;BME280;10885;52.830;13.788;2023-04-30T17:49:04;101733.47;;;15.15;32.86
21449;BME280;10885;52.830;13.788;2023-04-30T17:54:29;101740.16;;;14.66;33.96
21449;BME280;10885;52.830;13.788;2023-04-30T17:59:51;101744.84;;;14.30;35.43
21449;BME280;10885;52.830;13.788;2023-04-30T18:05:11;101741.59;;;13.91;36.24
21449;BME280;10885;52.830;13.788;2023-04-30T18:10:32;101745.94;;;13.51;37.61
21449;BME280;10885;52.830;13.788;2023-04-30T18:15:53;101738.69;;;13.32;38.62
21449;BME280;10885;52.830;13.788;2023-04-30T18:21:15;101740.25;;;13.03;39.49
21449;BME280;10885;52.830;13.788;2023-04-30T18:26:36;101742.56;;;12.87;39.68
21449;BME280;10885;52.830;13.788;2023-04-30T18:31:57;101743.81;;;12.67;40.42
21449;BME280;10885;52.830;13.788;2023-04-30T18:37:18;101744.63;;;12.41;41.00
21449;BME280;10885;52.830;13.788;2023-04-30T18:42:40;101749.84;;;12.17;41.73
21449;BME280;10885;52.830;13.788;2023-04-30T18:48:01;101739.88;;;11.97;42.45
21449;BME280;10885;52.830;13.788;2023-04-30T18:53:22;101755.53;;;11.76;42.48
21449;BME280;10885;52.830;13.788;2023-04-30T18:58:45;101768.59;;;11.67;42.98
21449;BME280;10885;52.830;13.788;2023-04-30T19:04:06;101771.84;;;11.53;43.29
21449;BME280;10885;52.830;13.788;2023-04-30T19:09:34;101774.66;;;11.44;42.68
21449;BME280;10885;52.830;13.788;2023-04-30T19:14:58;101769.84;;;11.25;43.86
21449;BME280;10885;52.830;13.788;2023-04-30T19:20:18;101773.50;;;11.05;44.65
21449;BME280;10885;52.830;13.788;2023-04-30T19:25:40;101772.69;;;10.83;45.99
21449;BME280;10885;52.830;13.788;2023-04-30T19:31:01;101772.34;;;10.56;47.02
21449;BME280;10885;52.830;13.788;2023-04-30T19:36:23;101771.75;;;10.37;47.32
21449;BME280;10885;52.830;13.788;2023-04-30T19:41:45;101773.06;;;10.31;47.62
21449;BME280;10885;52.830;13.788;2023-04-30T19:47:06;101778.19;;;10.31;47.29
21449;BME280;10885;52.830;13.788;2023-04-30T19:52:27;101783.06;;;9.96;48.31
21449;BME280;10885;52.830;13.788;2023-04-30T19:57:48;101786.13;;;9.70;49.52
21449;BME280;10885;52.830;13.788;2023-04-30T20:03:10;101783.38;;;9.46;49.71
21449;BME280;10885;52.830;13.788;2023-04-30T20:08:31;101784.59;;;9.29;50.77
21449;BME280;10885;52.830;13.788;2023-04-30T20:13:55;101782.44;;;9.13;51.12
21449;BME280;10885;52.830;13.788;2023-04-30T20:19:16;101781.81;;;8.95;52.48
21449;BME280;10885;52.830;13.788;2023-04-30T20:24:38;101780.53;;;8.70;54.01
21449;BME280;10885;52.830;13.788;2023-04-30T20:30:04;101782.28;;;8.50;54.78
21449;BME280;10885;52.830;13.788;2023-04-30T20:35:25;101785.69;;;8.41;55.15
21449;BME280;10885;52.830;13.788;2023-04-30T20:40:46;101787.72;;;8.24;55.11
21449;BME280;10885;52.830;13.788;2023-04-30T20:46:07;101790.97;;;8.03;55.48
21449;BME280;10885;52.830;13.788;2023-04-30T20:51:28;101785.78;;;7.82;56.80
21449;BME280;10885;52.830;13.788;2023-04-30T20:56:50;101795.34;;;7.55;58.04
21449;BME280;10885;52.830;13.788;2023-04-30T21:02:11;101785.97;;;7.46;57.88
21449;BME280;10885;52.830;13.788;2023-04-30T21:07:33;101783.44;;;7.27;57.98
21449;BME280;10885;52.830;13.788;2023-04-30T21:12:54;101786.13;;;7.09;59.15
21449;BME280;10885;52.830;13.788;2023-04-30T21:18:14;101776.88;;;7.01;58.88
21449;BME280;10885;52.830;13.788;2023-04-30T21:23:36;101787.97;;;6.83;59.43
21449;BME280;10885;52.830;13.788;2023-04-30T21:28:59;101803.03;;;6.71;60.30
21449;BME280;10885;52.830;13.788;2023-04-30T21:34:20;101791.88;;;6.51;61.95
21449;BME280;10885;52.830;13.788;2023-04-30T21:39:41;101798.19;;;6.46;61.61
21449;BME280;10885;52.830;13.788;2023-04-30T21:45:02;101787.06;;;6.27;62.66
